Time;durP1;ratioP1;P1;durP2;ratioP2;P2;SDS_P1;SDS_P2;PMS_P1;PMS_P2;Temp;Humidity;BMP_temperature;BMP_pressure;BME280_temperature;BME280_humidity;BME280_pressure;Samples;Min_cycle;Max_cycle;Signal;HPM_P1;HPM_P2
2021/10/20 00:01:27;;;;;;;80.77;76.77;;;14.50;99.90;;;;;;4391190;32;20151;-62
2021/10/20 00:03:54;;;;;;;76.63;72.83;;;14.50;99.90;;;;;;4392433;32;20268;-61
2021/10/20 00:06:21;;;;;;;81.03;77.03;;;14.50;99.90;;;;;;4390488;32;20199;-63
2021/10/20 00:08:50;;;;;;;78.90;74.80;;;14.50;99.90;;;;;;4392255;32;20223;-61
2021/10/20 00:11:17;;;;;;;78.83;74.83;;;14.50;99.90;;;;;;4390818;32;20186;-62
2021/10/20 00:13:46;;;;;;;77.63;73.73;;;14.50;99.90;;;;;;4390548;32;20208;-62
2021/10/20 00:16:15;;;;;;;79.30;75.30;;;14.50;99.90;;;;;;4390954;32;20148;-63
2021/10/20 00:18:47;;;;;;;75.50;71.73;;;14.50;99.90;;;;;;4390258;32;20164;-62
2021/10/20 00:21:15;;;;;;;75.57;71.77;;;14.60;99.90;;;;;;4392452;32;20152;-62
2021/10/20 00:23:42;;;;;;;76.77;72.93;;;14.50;99.90;;;;;;4390674;32;20160;-62
2021/10/20 00:26:09;;;;;;;76.27;72.40;;;14.60;99.90;;;;;;4391046;32;20609;-62
2021/10/20 00:28:36;;;;;;;73.37;69.83;;;14.60;99.90;;;;;;4390220;32;20176;-62
2021/10/20 00:31:04;;;;;;;76.87;72.80;;;14.60;99.90;;;;;;4390645;32;20151;-62
2021/10/20 00:33:31;;;;;;;68.50;65.20;;;14.70;99.90;;;;;;4391603;32;20176;-62
2021/10/20 00:35:58;;;;;;;74.43;70.93;;;14.60;99.90;;;;;;4391396;32;20525;-62
2021/10/20 00:38:25;;;;;;;76.60;72.60;;;14.60;99.90;;;;;;4390290;32;20183;-61
2021/10/20 00:40:52;;;;;;;71.37;67.97;;;14.60;99.90;;;;;;4390354;32;20203;-63
2021/10/20 00:43:20;;;;;;;75.00;71.37;;;14.70;99.90;;;;;;4390542;32;20220;-62
2021/10/20 00:45:47;;;;;;;78.50;74.57;;;14.70;99.90;;;;;;4390512;32;20190;-63
2021/10/20 00:48:15;;;;;;;76.63;72.80;;;14.70;99.90;;;;;;4391452;32;20595;-61
2021/10/20 00:50:43;;;;;;;74.57;70.70;;;14.70;99.90;;;;;;4391839;32;20190;-63
2021/10/20 00:53:10;;;;;;;80.17;76.43;;;14.70;99.90;;;;;;4390057;32;20270;-62
2021/10/20 00:55:37;;;;;;;71.93;68.40;;;14.70;99.90;;;;;;4390560;32;20204;-62
2021/10/20 00:58:05;;;;;;;75.30;71.70;;;14.70;99.90;;;;;;4391381;32;20204;-62
2021/10/20 01:00:32;;;;;;;78.47;74.37;;;14.70;99.90;;;;;;4390524;32;20163;-62
2021/10/20 01:03:02;;;;;;;70.83;67.23;;;14.70;99.90;;;;;;4391648;32;20200;-62
2021/10/20 01:05:30;;;;;;;72.33;68.83;;;14.70;99.90;;;;;;4390544;32;20204;-63
2021/10/20 01:07:57;;;;;;;78.10;74.47;;;14.70;99.90;;;;;;4390207;32;20167;-63
2021/10/20 01:10:27;;;;;;;76.83;72.93;;;14.60;99.90;;;;;;4393346;32;20190;-61
2021/10/20 01:12:54;;;;;;;74.00;69.97;;;14.60;99.90;;;;;;4393846;32;20215;-62
2021/10/20 01:15:25;;;;;;;72.43;68.73;;;14.60;99.90;;;;;;4390407;32;20148;-63
2021/10/20 01:17:52;;;;;;;74.23;70.80;;;14.60;99.90;;;;;;4391324;32;20632;-62
2021/10/20 01:20:22;;;;;;;73.30;69.70;;;14.60;99.90;;;;;;4390254;32;20167;-62
2021/10/20 01:22:53;;;;;;;78.80;74.87;;;14.50;99.90;;;;;;4391031;32;20164;-61
2021/10/20 01:25:20;;;;;;;79.80;75.70;;;14.40;99.90;;;;;;4390701;32;20619;-62
2021/10/20 01:27:47;;;;;;;76.50;72.73;;;14.40;99.90;;;;;;4390610;32;20156;-62
2021/10/20 01:30:14;;;;;;;77.87;73.93;;;14.40;99.90;;;;;;4390991;32;20199;-62
2021/10/20 01:32:41;;;;;;;76.47;72.87;;;14.40;99.90;;;;;;4390686;32;20208;-62
2021/10/20 01:35:09;;;;;;;83.47;79.53;;;14.40;99.90;;;;;;4390416;32;20144;-61
2021/10/20 01:37:36;;;;;;;75.83;71.80;;;14.40;99.90;;;;;;4390389;32;20178;-63
2021/10/20 01:40:07;;;;;;;80.33;76.43;;;14.30;99.90;;;;;;4390125;32;20195;-62
2021/10/20 01:42:34;;;;;;;80.43;76.43;;;14.40;99.90;;;;;;4391290;32;20175;-62
2021/10/20 01:45:01;;;;;;;79.70;75.57;;;14.30;99.90;;;;;;4385849;32;20156;-61
2021/10/20 01:47:28;;;;;;;77.40;73.53;;;14.30;99.90;;;;;;4391200;32;20546;-62
2021/10/20 01:49:54;;;;;;;80.70;76.87;;;14.30;99.90;;;;;;4391558;32;20171;-62
2021/10/20 01:52:21;;;;;;;75.90;72.10;;;14.40;99.90;;;;;;4389716;32;20662;-63
2021/10/20 01:54:48;;;;;;;72.97;69.47;;;14.40;99.90;;;;;;4391240;32;20187;-63
2021/10/20 01:57:17;;;;;;;75.70;72.03;;;14.30;99.90;;;;;;4389598;32;20160;-62
2021/10/20 01:59:43;;;;;;;76.37;72.37;;;14.30;99.90;;;;;;4389995;32;20170;-62
2021/10/20 02:02:18;;;;;;;80.20;76.10;;;14.30;99.90;;;;;;4390931;32;20215;-62
2021/10/20 02:04:45;;;;;;;77.43;73.60;;;14.30;99.90;;;;;;4391662;32;20211;-63
2021/10/20 02:07:14;;;;;;;76.20;72.17;;;14.20;99.90;;;;;;4389177;32;20188;-63
2021/10/20 02:09:40;;;;;;;74.93;71.33;;;14.20;99.90;;;;;;4389318;32;20247;-61
2021/10/20 02:12:08;;;;;;;72.83;69.00;;;14.20;99.90;;;;;;4389681;32;20510;-62
2021/10/20 02:14:37;;;;;;;76.47;72.53;;;14.30;99.90;;;;;;4389471;32;20168;-62
2021/10/20 02:17:04;;;;;;;73.10;69.53;;;14.30;99.90;;;;;;4383418;32;20156;-62
2021/10/20 02:19:31;;;;;;;70.43;66.77;;;14.30;99.90;;;;;;4389870;32;20232;-62
2021/10/20 02:21:59;;;;;;;77.80;73.83;;;14.30;99.90;;;;;;4390921;32;20171;-62
2021/10/20 02:24:27;;;;;;;73.60;69.90;;;14.40;99.90;;;;;;4393009;32;20148;-62
2021/10/20 02:26:54;;;;;;;76.80;72.90;;;14.30;99.90;;;;;;4392034;32;20168;-62
2021/10/20 02:29:21;;;;;;;73.30;69.37;;;14.30;99.90;;;;;;4392481;32;20179;-61
2021/10/20 02:31:50;;;;;;;75.20;71.33;;;14.40;99.90;;;;;;4393472;32;20174;-63
2021/10/20 02:34:19;;;;;;;74.53;70.73;;;14.40;99.90;;;;;;4392683;32;20149;-62
2021/10/20 02:36:47;;;;;;;77.07;73.00;;;14.40;99.90;;;;;;4392995;32;20223;-62
2021/10/20 02:39:14;;;;;;;72.90;68.97;;;14.40;99.90;;;;;;4392556;32;20167;-62
2021/10/20 02:41:40;;;;;;;72.97;69.40;;;14.40;99.90;;;;;;4391983;32;20202;-62
2021/10/20 02:44:07;;;;;;;77.33;73.13;;;14.40;99.90;;;;;;4392964;32;20164;-64
2021/10/20 02:46:34;;;;;;;72.60;68.97;;;14.40;99.90;;;;;;4391873;32;20159;-63
2021/10/20 02:49:03;;;;;;;82.80;78.57;;;14.40;99.90;;;;;;4392113;32;20162;-62
2021/10/20 02:51:30;;;;;;;74.70;71.10;;;14.40;99.90;;;;;;4393398;32;20535;-62
2021/10/20 02:53:58;;;;;;;78.53;74.60;;;14.40;99.90;;;;;;4391719;32;20190;-61
2021/10/20 02:56:24;;;;;;;80.90;76.90;;;14.30;99.90;;;;;;4391821;32;20160;-62
2021/10/20 02:58:51;;;;;;;77.30;73.30;;;14.40;99.90;;;;;;4391983;32;20182;-63
2021/10/20 03:01:20;;;;;;;76.57;72.83;;;14.40;99.90;;;;;;4392083;32;20207;-63
2021/10/20 03:03:47;;;;;;;74.93;71.03;;;14.40;99.90;;;;;;4391990;32;20198;-62
2021/10/20 03:06:16;;;;;;;80.53;76.50;;;14.40;99.90;;;;;;4392085;32;20188;-64
2021/10/20 03:08:43;;;;;;;75.80;71.87;;;14.40;99.90;;;;;;4393043;32;20206;-63
2021/10/20 03:11:12;;;;;;;78.33;74.20;;;14.50;99.90;;;;;;4391895;32;20207;-63
2021/10/20 03:13:39;;;;;;;77.77;73.57;;;14.60;99.90;;;;;;4391871;32;20220;-62
2021/10/20 03:16:06;;;;;;;77.93;74.17;;;14.60;99.90;;;;;;4391428;32;20179;-62
2021/10/20 03:18:33;;;;;;;77.83;74.03;;;14.60;99.90;;;;;;4393044;32;20575;-63
2021/10/20 03:21:00;;;;;;;81.63;77.40;;;14.60;99.90;;;;;;4392693;32;20186;-63
2021/10/20 03:23:28;;;;;;;75.80;71.57;;;14.60;99.90;;;;;;4391742;32;20186;-61
2021/10/20 03:25:55;;;;;;;79.40;75.10;;;14.60;99.90;;;;;;4391367;32;20176;-62
2021/10/20 03:28:22;;;;;;;76.83;72.77;;;14.50;99.90;;;;;;4391905;32;20152;-63
2021/10/20 03:30:49;;;;;;;84.03;79.67;;;14.50;99.90;;;;;;4391898;32;20156;-62
2021/10/20 03:33:16;;;;;;;79.20;75.27;;;14.50;99.90;;;;;;4392212;32;20153;-62
2021/10/20 03:35:42;;;;;;;71.43;67.73;;;14.50;99.90;;;;;;4391741;32;20148;-64
2021/10/20 03:38:11;;;;;;;80.97;76.93;;;14.60;99.90;;;;;;4391379;32;20238;-62
2021/10/20 03:40:39;;;;;;;80.63;76.50;;;14.60;99.90;;;;;;4391466;32;20553;-62
2021/10/20 03:43:06;;;;;;;72.37;68.87;;;14.60;99.90;;;;;;4391382;32;20160;-62
2021/10/20 03:45:33;;;;;;;77.67;73.57;;;14.60;99.90;;;;;;4381730;32;20549;-62
2021/10/20 03:48:00;;;;;;;76.37;72.67;;;14.70;99.90;;;;;;4390538;32;20183;-63
2021/10/20 03:50:27;;;;;;;78.03;74.23;;;14.80;99.90;;;;;;4392017;32;20204;-62
2021/10/20 03:52:54;;;;;;;74.50;70.70;;;14.80;99.90;;;;;;4392362;32;20182;-62
2021/10/20 03:55:21;;;;;;;75.47;71.10;;;14.80;99.90;;;;;;4392468;32;20473;-62
2021/10/20 03:57:49;;;;;;;74.00;70.07;;;14.90;99.90;;;;;;4390855;32;20175;-62
2021/10/20 04:00:18;;;;;;;78.97;74.97;;;14.90;99.90;;;;;;4391336;32;20198;-62
2021/10/20 04:02:47;;;;;;;74.73;70.83;;;14.90;99.90;;;;;;4392185;32;20176;-63
2021/10/20 04:05:16;;;;;;;78.77;74.77;;;14.90;99.90;;;;;;4391178;32;20208;-62
2021/10/20 04:07:43;;;;;;;80.00;76.07;;;14.80;99.90;;;;;;4390683;32;20509;-64
2021/10/20 04:10:14;;;;;;;73.17;69.43;;;14.80;99.90;;;;;;4391205;32;20223;-62
2021/10/20 04:12:41;;;;;;;71.60;68.07;;;14.70;99.90;;;;;;4390625;32;20208;-63
2021/10/20 04:15:10;;;;;;;69.90;66.17;;;14.70;99.90;;;;;;4391439;32;20589;-62
2021/10/20 04:17:38;;;;;;;75.53;71.57;;;14.70;99.90;;;;;;4390978;32;20176;-62
2021/10/20 04:20:06;;;;;;;70.53;67.03;;;14.70;99.90;;;;;;4391142;32;20600;-63
2021/10/20 04:22:36;;;;;;;80.80;76.70;;;14.70;99.90;;;;;;4390339;32;20160;-62
2021/10/20 04:25:04;;;;;;;72.77;68.87;;;14.70;99.90;;;;;;4392493;32;20156;-63
2021/10/20 04:27:31;;;;;;;75.77;71.83;;;14.70;99.90;;;;;;4390416;32;20229;-63
2021/10/20 04:29:59;;;;;;;78.70;74.90;;;14.70;99.90;;;;;;4390796;32;20213;-62
2021/10/20 04:32:28;;;;;;;76.57;72.57;;;14.70;99.90;;;;;;4392083;32;20183;-63
2021/10/20 04:34:55;;;;;;;75.57;71.37;;;14.70;99.90;;;;;;4391124;32;20505;-62
2021/10/20 04:37:25;;;;;;;79.03;74.87;;;14.80;99.90;;;;;;4389828;32;20230;-62
2021/10/20 04:39:53;;;;;;;71.33;67.43;;;14.70;99.90;;;;;;4391531;32;20651;-62
2021/10/20 04:42:21;;;;;;;81.27;77.20;;;14.70;99.90;;;;;;4391749;32;20152;-62
2021/10/20 04:44:48;;;;;;;76.37;72.23;;;14.70;99.90;;;;;;4389532;32;20193;-64
2021/10/20 04:47:15;;;;;;;80.00;75.33;;;14.80;99.90;;;;;;4390498;32;20175;-62
2021/10/20 04:49:43;;;;;;;78.00;73.77;;;14.80;99.90;;;;;;4391119;32;20184;-61
2021/10/20 04:52:11;;;;;;;82.30;78.03;;;14.90;99.90;;;;;;4390595;32;20291;-62
2021/10/20 04:54:38;;;;;;;75.47;71.40;;;15.00;99.90;;;;;;4390867;32;20239;-62
2021/10/20 04:57:05;;;;;;;72.97;68.97;;;15.00;99.90;;;;;;4390030;32;20183;-62
2021/10/20 04:59:33;;;;;;;81.03;76.93;;;15.10;99.90;;;;;;4392117;32;20152;-64
2021/10/20 05:02:00;;;;;;;70.87;67.33;;;15.10;99.90;;;;;;4390103;32;20164;-63
2021/10/20 05:04:27;;;;;;;73.30;69.60;;;15.20;99.90;;;;;;4390608;32;20172;-63
2021/10/20 05:06:56;;;;;;;79.13;74.93;;;15.20;99.90;;;;;;4391098;32;20179;-62
2021/10/20 05:09:23;;;;;;;74.57;70.70;;;15.30;99.90;;;;;;4390459;32;20220;-62
2021/10/20 05:11:50;;;;;;;77.17;73.23;;;15.30;99.90;;;;;;4390619;32;20485;-61
2021/10/20 05:14:17;;;;;;;79.87;75.90;;;15.20;99.90;;;;;;4389887;32;20194;-63
2021/10/20 05:16:44;;;;;;;82.27;78.07;;;15.20;99.90;;;;;;4389097;32;20226;-61
2021/10/20 05:19:10;;;;;;;80.23;76.07;;;15.20;99.90;;;;;;4388344;32;20176;-61
2021/10/20 05:21:37;;;;;;;78.00;74.10;;;15.10;99.90;;;;;;4389133;32;20196;-62
2021/10/20 05:24:06;;;;;;;75.83;71.63;;;15.10;99.90;;;;;;4389041;32;20184;-62
2021/10/20 05:26:32;;;;;;;75.03;71.00;;;15.10;99.90;;;;;;4389014;32;20205;-62
2021/10/20 05:28:59;;;;;;;79.87;75.43;;;15.10;99.90;;;;;;4390046;32;20184;-62
2021/10/20 05:31:26;;;;;;;80.70;76.70;;;15.10;99.90;;;;;;4391456;32;20565;-63
2021/10/20 05:33:53;;;;;;;81.40;77.30;;;14.90;99.90;;;;;;4390591;32;20222;-62
2021/10/20 05:36:19;;;;;;;77.07;73.07;;;14.80;99.90;;;;;;4390844;32;20156;-62
2021/10/20 05:38:47;;;;;;;90.27;85.63;;;14.70;99.90;;;;;;4389354;32;20212;-62
2021/10/20 05:41:15;;;;;;;90.40;85.87;;;14.70;99.90;;;;;;4389846;32;20445;-62
2021/10/20 05:43:47;;;;;;;80.57;76.50;;;14.60;99.90;;;;;;4389123;32;20194;-62
2021/10/20 05:46:17;;;;;;;83.73;79.33;;;14.60;99.90;;;;;;4386777;32;20571;-62
2021/10/20 05:48:44;;;;;;;82.70;78.73;;;14.60;99.90;;;;;;4390355;32;20182;-62
2021/10/20 05:51:11;;;;;;;83.33;79.13;;;14.60;99.90;;;;;;4385646;32;20174;-61
2021/10/20 05:53:37;;;;;;;82.67;78.73;;;14.70;99.90;;;;;;4389933;32;20179;-61
2021/10/20 05:56:06;;;;;;;86.07;81.77;;;14.60;99.90;;;;;;4390802;32;20204;-62
2021/10/20 05:58:34;;;;;;;79.20;74.80;;;14.60;99.90;;;;;;4394177;32;20199;-61
2021/10/20 06:01:01;;;;;;;82.07;77.50;;;14.60;99.90;;;;;;4393379;32;20283;-61
2021/10/20 06:03:28;;;;;;;91.00;86.40;;;14.60;99.90;;;;;;4394174;32;20174;-62
2021/10/20 06:05:54;;;;;;;85.80;81.33;;;14.60;99.90;;;;;;4392255;32;20204;-61
2021/10/20 06:08:21;;;;;;;83.77;79.53;;;14.60;99.90;;;;;;4392418;32;20191;-61
2021/10/20 06:10:48;;;;;;;82.90;78.43;;;14.60;99.90;;;;;;4392702;32;20568;-63
2021/10/20 06:13:15;;;;;;;78.67;74.70;;;14.60;99.90;;;;;;4391535;32;20156;-63
2021/10/20 06:15:43;;;;;;;76.63;72.70;;;14.60;99.90;;;;;;4394093;32;20180;-63
2021/10/20 06:18:10;;;;;;;84.57;80.33;;;14.60;99.90;;;;;;4391482;32;20779;-62
2021/10/20 06:20:37;;;;;;;77.90;74.17;;;14.60;99.90;;;;;;4390860;32;20204;-62
2021/10/20 06:23:04;;;;;;;77.03;73.20;;;14.60;99.90;;;;;;4391354;32;20188;-62
2021/10/20 06:25:31;;;;;;;80.60;76.50;;;14.70;99.90;;;;;;4390303;32;20159;-62
2021/10/20 06:27:58;;;;;;;84.83;80.50;;;14.70;99.90;;;;;;4392544;32;20163;-63
2021/10/20 06:30:25;;;;;;;81.20;76.70;;;14.70;99.90;;;;;;4391057;32;20172;-62
2021/10/20 06:32:53;;;;;;;70.80;67.07;;;14.70;99.90;;;;;;4392085;32;20587;-61
2021/10/20 06:35:20;;;;;;;82.20;78.13;;;14.80;99.90;;;;;;4390695;32;20666;-61
2021/10/20 06:37:48;;;;;;;75.27;71.70;;;14.80;99.90;;;;;;4391206;32;20334;-61
2021/10/20 06:40:16;;;;;;;78.00;74.00;;;14.80;99.90;;;;;;4391882;32;20182;-61
2021/10/20 06:42:42;;;;;;;73.60;69.80;;;14.80;99.90;;;;;;4392634;32;20160;-62
2021/10/20 06:45:10;;;;;;;78.07;74.00;;;14.80;99.90;;;;;;4391994;32;20183;-61
2021/10/20 06:47:37;;;;;;;74.70;71.07;;;14.90;99.90;;;;;;4391762;32;20199;-62
2021/10/20 06:50:06;;;;;;;79.40;75.47;;;14.90;99.90;;;;;;4391098;32;20200;-61
2021/10/20 06:52:33;;;;;;;74.63;71.00;;;15.00;99.90;;;;;;4389786;32;20206;-61
2021/10/20 06:55:00;;;;;;;77.63;73.97;;;15.00;99.90;;;;;;4392049;32;20223;-61
2021/10/20 06:57:26;;;;;;;73.17;69.70;;;15.10;99.90;;;;;;4389482;32;20164;-62
2021/10/20 06:59:53;;;;;;;75.13;71.40;;;15.10;99.90;;;;;;4391136;32;20214;-61
2021/10/20 07:02:20;;;;;;;80.37;76.40;;;15.10;99.90;;;;;;4392158;32;20246;-62
2021/10/20 07:04:47;;;;;;;76.33;72.47;;;15.00;99.90;;;;;;4391381;32;20152;-61
2021/10/20 07:07:15;;;;;;;85.17;80.77;;;15.00;99.90;;;;;;4391693;32;20586;-63
2021/10/20 07:09:42;;;;;;;80.17;76.30;;;15.00;99.90;;;;;;4390364;32;20207;-63
2021/10/20 07:12:09;;;;;;;85.27;81.07;;;15.00;99.90;;;;;;4392338;32;20160;-61
2021/10/20 07:14:36;;;;;;;89.10;84.40;;;15.00;99.90;;;;;;4390402;32;20156;-60
2021/10/20 07:17:05;;;;;;;84.20;80.13;;;14.80;99.90;;;;;;4391136;32;20160;-63
2021/10/20 07:19:34;;;;;;;81.93;77.83;;;14.80;99.90;;;;;;4391069;32;20160;-62
2021/10/20 07:22:01;;;;;;;82.13;77.93;;;14.70;99.90;;;;;;4391817;32;20581;-63
2021/10/20 07:24:32;;;;;;;92.33;87.90;;;14.70;99.90;;;;;;4391237;32;20257;-63
2021/10/20 07:26:58;;;;;;;90.00;85.50;;;14.60;99.90;;;;;;4391344;32;20585;-63
2021/10/20 07:29:25;;;;;;;101.03;95.97;;;14.60;99.90;;;;;;4389892;32;20164;-63
2021/10/20 07:31:56;;;;;;;106.73;101.53;;;14.60;99.90;;;;;;4392802;32;20584;-61
2021/10/20 07:34:24;;;;;;;101.83;96.83;;;14.60;99.90;;;;;;4391907;32;20156;-60
2021/10/20 07:36:51;;;;;;;99.70;94.73;;;14.50;99.90;;;;;;4391716;32;20161;-62
2021/10/20 07:39:19;;;;;;;101.20;96.30;;;14.50;99.90;;;;;;4390842;32;20211;-63
2021/10/20 07:41:48;;;;;;;104.07;99.07;;;14.50;99.90;;;;;;4390772;32;20576;-61
2021/10/20 07:44:18;;;;;;;96.40;91.73;;;14.50;99.90;;;;;;4390740;32;20170;-61
2021/10/20 07:46:44;;;;;;;104.43;99.20;;;14.50;99.90;;;;;;4389667;32;20446;-62
2021/10/20 07:49:12;;;;;;;113.70;107.93;;;14.50;99.90;;;;;;4390294;32;20193;-63
2021/10/20 07:51:39;;;;;;;104.83;99.57;;;14.60;99.90;;;;;;4390412;32;20202;-62
2021/10/20 07:54:06;;;;;;;108.93;103.47;;;14.60;99.90;;;;;;4390683;32;20245;-62
2021/10/20 07:56:42;;;;;;;99.90;94.97;;;14.60;99.90;;;;;;4391382;32;20227;-62
2021/10/20 07:59:10;;;;;;;100.87;96.13;;;14.60;99.90;;;;;;4391179;32;20159;-62
2021/10/20 08:01:37;;;;;;;97.93;92.77;;;14.60;99.90;;;;;;4391795;32;20178;-62
2021/10/20 08:04:04;;;;;;;94.33;89.60;;;14.60;99.90;;;;;;4389949;32;20230;-62
2021/10/20 08:06:31;;;;;;;94.27;89.43;;;14.60;99.90;;;;;;4390360;32;20190;-62
2021/10/20 08:08:58;;;;;;;99.37;94.13;;;14.60;99.90;;;;;;4384551;32;20584;-62
2021/10/20 08:11:25;;;;;;;94.23;89.63;;;14.70;99.90;;;;;;4389710;32;20163;-62
2021/10/20 08:13:51;;;;;;;104.77;99.77;;;14.70;99.90;;;;;;4391189;32;20215;-62
2021/10/20 08:16:20;;;;;;;102.57;97.40;;;14.80;99.90;;;;;;4389226;32;20177;-62
2021/10/20 08:18:46;;;;;;;99.20;94.23;;;14.80;99.90;;;;;;4388785;32;20478;-62
2021/10/20 08:21:13;;;;;;;97.47;92.37;;;14.80;99.90;;;;;;4391836;32;20179;-62
2021/10/20 08:23:41;;;;;;;105.93;100.33;;;14.80;99.90;;;;;;4390241;32;20188;-61
2021/10/20 08:26:08;;;;;;;97.20;92.57;;;14.80;99.90;;;;;;4387481;32;20541;-62
2021/10/20 08:28:36;;;;;;;104.53;98.83;;;14.90;99.90;;;;;;4390241;32;20198;-62
2021/10/20 08:31:03;;;;;;;104.73;99.03;;;15.00;99.90;;;;;;4391844;32;20164;-62
2021/10/20 08:33:32;;;;;;;92.80;88.03;;;15.30;99.90;;;;;;4390232;32;20619;-62
2021/10/20 08:35:59;;;;;;;95.93;91.33;;;15.70;99.90;;;;;;4390012;32;20188;-63
2021/10/20 08:38:26;;;;;;;90.60;85.97;;;15.80;99.90;;;;;;4389313;32;20152;-60
2021/10/20 08:40:53;;;;;;;93.93;89.20;;;15.90;99.90;;;;;;4390118;32;20857;-61
2021/10/20 08:43:23;;;;;;;89.20;84.67;;;16.10;99.90;;;;;;4389605;32;20564;-61
2021/10/20 08:45:51;;;;;;;82.67;78.53;;;16.20;99.90;;;;;;4389976;32;20168;-61
2021/10/20 08:48:21;;;;;;;76.70;72.83;;;16.40;99.90;;;;;;4389242;32;20186;-61
2021/10/20 08:50:53;;;;;;;76.93;73.03;;;16.40;99.90;;;;;;4388012;32;20164;-61
2021/10/20 08:53:23;;;;;;;84.10;79.70;;;16.50;99.90;;;;;;4388291;32;20159;-61
2021/10/20 08:55:51;;;;;;;86.60;82.20;;;16.50;99.90;;;;;;4389257;32;20508;-62
2021/10/20 08:58:18;;;;;;;76.53;72.47;;;16.50;99.90;;;;;;4388716;32;20190;-62
2021/10/20 09:00:45;;;;;;;82.40;77.97;;;16.50;99.90;;;;;;4389170;32;20214;-61
2021/10/20 09:03:12;;;;;;;80.40;75.83;;;16.50;99.90;;;;;;4388937;32;20175;-62
2021/10/20 09:05:39;;;;;;;75.23;70.03;;;16.50;99.90;;;;;;4389957;32;20164;-62
2021/10/20 09:08:08;;;;;;;75.47;71.37;;;16.40;99.90;;;;;;4388318;32;20184;-62
2021/10/20 09:10:35;;;;;;;75.93;71.03;;;16.40;99.90;;;;;;4369068;32;20661;-62
2021/10/20 09:13:03;;;;;;;85.93;81.43;;;16.50;99.90;;;;;;4351586;33;20184;-62
2021/10/20 09:15:34;;;;;;;77.27;73.03;;;16.60;99.90;;;;;;4350579;33;20188;-62
2021/10/20 09:18:04;;;;;;;76.30;72.27;;;16.70;99.90;;;;;;4351969;33;20578;-62
2021/10/20 09:20:34;;;;;;;74.10;70.00;;;16.90;99.90;;;;;;4347188;33;20195;-61
2021/10/20 09:23:06;;;;;;;72.03;68.20;;;17.00;99.90;;;;;;4352620;33;20203;-62
2021/10/20 09:25:37;;;;;;;73.40;69.47;;;17.10;99.90;;;;;;4349856;33;20199;-62
2021/10/20 09:28:06;;;;;;;68.30;64.70;;;17.10;99.90;;;;;;4346786;33;20216;-61
2021/10/20 09:30:33;;;;;;;69.93;66.13;;;16.90;99.90;;;;;;4353137;32;20161;-60
2021/10/20 09:33:01;;;;;;;70.60;66.90;;;16.90;99.90;;;;;;4357217;32;20180;-62
2021/10/20 09:35:33;;;;;;;77.17;73.07;;;16.90;99.90;;;;;;4349306;33;20612;-62
2021/10/20 09:38:01;;;;;;;75.80;71.70;;;16.90;99.90;;;;;;4344536;33;20173;-63
2021/10/20 09:40:36;;;;;;;72.93;69.00;;;17.00;99.90;;;;;;4348366;33;20195;-63
2021/10/20 09:43:04;;;;;;;70.13;66.27;;;17.10;99.90;;;;;;4345381;33;20182;-61
2021/10/20 09:45:35;;;;;;;64.40;60.80;;;17.10;99.90;;;;;;4344869;33;20284;-61
2021/10/20 09:48:13;;;;;;;68.30;64.50;;;17.10;99.90;;;;;;4343064;33;20366;-61
2021/10/20 09:50:41;;;;;;;71.60;67.90;;;17.00;99.90;;;;;;4346425;33;20646;-62
2021/10/20 09:53:08;;;;;;;68.93;65.33;;;17.00;99.90;;;;;;4346952;33;20176;-63
2021/10/20 09:55:36;;;;;;;75.10;71.07;;;16.90;99.90;;;;;;4346702;33;20204;-63
2021/10/20 09:58:03;;;;;;;72.90;68.70;;;16.90;99.90;;;;;;4348161;33;20232;-62
2021/10/20 10:00:31;;;;;;;71.23;67.50;;;16.80;99.90;;;;;;4344483;33;20266;-63
2021/10/20 10:03:02;;;;;;;69.37;65.80;;;16.90;99.90;;;;;;4347008;33;20161;-64
2021/10/20 10:05:31;;;;;;;74.17;70.30;;;17.00;99.90;;;;;;4347379;33;20170;-62
2021/10/20 10:07:58;;;;;;;68.27;64.37;;;16.90;99.90;;;;;;4346965;33;20191;-62
2021/10/20 10:10:25;;;;;;;67.47;63.90;;;17.00;99.90;;;;;;4347338;33;20189;-66
2021/10/20 10:12:58;;;;;;;70.73;67.13;;;17.00;99.90;;;;;;4346408;33;20173;-64
2021/10/20 10:15:27;;;;;;;66.53;63.00;;;16.90;99.90;;;;;;4347426;33;20243;-66
2021/10/20 10:17:55;;;;;;;68.10;64.57;;;17.00;99.90;;;;;;4345847;33;20650;-63
2021/10/20 10:20:27;;;;;;;66.47;63.10;;;17.30;99.90;;;;;;4345469;33;20215;-63
2021/10/20 10:22:56;;;;;;;62.60;59.30;;;17.50;99.90;;;;;;4349167;33;20212;-65
2021/10/20 10:25:34;;;;;;;59.93;56.40;;;17.70;99.90;;;;;;4347807;33;20207;-65
2021/10/20 10:28:05;;;;;;;56.17;53.20;;;17.70;99.90;;;;;;4348453;33;20177;-66
2021/10/20 10:30:45;;;;;;;63.40;60.03;;;17.60;99.90;;;;;;4347214;33;20549;-65
2021/10/20 10:33:16;;;;;;;58.97;55.97;;;17.50;99.90;;;;;;4339994;33;20232;-63
2021/10/20 10:35:43;;;;;;;61.80;58.37;;;17.40;99.90;;;;;;4345453;33;20217;-63
2021/10/20 10:38:10;;;;;;;58.23;55.33;;;17.60;99.90;;;;;;4344805;33;20215;-63
2021/10/20 10:40:37;;;;;;;57.30;54.30;;;17.60;99.90;;;;;;4347545;33;20216;-63
2021/10/20 10:43:11;;;;;;;56.47;53.47;;;17.70;99.90;;;;;;4345380;33;20164;-63
2021/10/20 10:45:38;;;;;;;62.77;59.47;;;17.60;99.90;;;;;;4344853;33;20224;-63
2021/10/20 10:48:07;;;;;;;58.37;55.20;;;17.50;99.90;;;;;;4346442;33;20212;-62
2021/10/20 10:50:47;;;;;;;63.93;60.60;;;17.40;99.90;;;;;;4347275;33;20157;-62
2021/10/20 10:53:31;;;;;;;64.40;61.17;;;17.40;99.90;;;;;;4347114;33;20632;-62
2021/10/20 10:56:07;;;;;;;61.17;57.97;;;17.30;99.90;;;;;;4348572;33;20182;-61
2021/10/20 10:59:00;;;;;;;63.63;60.40;;;17.40;99.90;;;;;;4356090;32;20164;-62
2021/10/20 11:01:43;;;;;;;63.13;59.73;;;17.30;99.90;;;;;;4348569;33;20192;-62
2021/10/20 11:04:17;;;;;;;60.17;57.17;;;17.30;99.90;;;;;;4348777;33;20148;-62
2021/10/20 11:06:44;;;;;;;63.10;59.73;;;17.20;99.90;;;;;;4346080;33;20208;-62
2021/10/20 11:09:15;;;;;;;57.83;54.83;;;17.40;99.90;;;;;;4333546;33;20166;-62
2021/10/20 11:11:47;;;;;;;62.13;58.40;;;17.50;99.90;;;;;;4332596;33;20164;-62
2021/10/20 11:14:15;;;;;;;61.47;58.43;;;17.50;99.90;;;;;;4327757;33;20533;-62
2021/10/20 11:16:42;;;;;;;62.03;58.67;;;17.50;99.90;;;;;;4332063;33;20173;-62
2021/10/20 11:19:10;;;;;;;57.37;54.33;;;17.50;99.90;;;;;;4332125;33;20187;-61
2021/10/20 11:21:38;;;;;;;60.03;57.00;;;17.60;99.90;;;;;;4325131;33;20223;-62
2021/10/20 11:24:07;;;;;;;58.30;55.40;;;17.60;99.90;;;;;;4330213;33;20177;-65
2021/10/20 11:26:36;;;;;;;60.17;57.10;;;17.50;99.90;;;;;;4332167;33;20225;-65
2021/10/20 11:29:07;;;;;;;59.27;56.37;;;17.50;99.90;;;;;;4331878;33;20199;-65
2021/10/20 11:31:38;;;;;;;58.50;55.27;;;17.50;99.90;;;;;;4320402;33;20161;-61
2021/10/20 11:34:16;;;;;;;62.87;59.47;;;17.30;99.90;;;;;;4330072;33;20213;-63
2021/10/20 11:36:43;;;;;;;59.83;56.67;;;17.20;99.90;;;;;;4324701;33;20165;-61
2021/10/20 11:39:10;;;;;;;61.77;58.10;;;17.20;99.90;;;;;;4328353;33;20248;-62
2021/10/20 11:41:37;;;;;;;62.83;59.70;;;17.20;99.90;;;;;;4323334;33;20165;-65
2021/10/20 11:44:05;;;;;;;60.60;57.60;;;17.10;99.90;;;;;;4330476;33;20523;-62
2021/10/20 11:46:33;;;;;;;68.73;65.23;;;17.10;99.90;;;;;;4331545;33;20236;-61
2021/10/20 11:49:01;;;;;;;58.63;55.63;;;17.10;99.90;;;;;;4327894;33;20824;-63
2021/10/20 11:51:31;;;;;;;70.87;67.23;;;17.10;99.90;;;;;;4326131;33;20165;-63
2021/10/20 11:54:05;;;;;;;63.90;60.40;;;16.90;99.90;;;;;;4331520;33;20235;-63
2021/10/20 11:56:32;;;;;;;72.10;68.57;;;16.80;99.90;;;;;;4332222;33;20184;-62
2021/10/20 11:59:00;;;;;;;70.03;66.27;;;16.80;99.90;;;;;;4331463;33;20213;-64
2021/10/20 12:01:29;;;;;;;67.57;64.20;;;16.90;99.90;;;;;;4330323;33;20217;-63
2021/10/20 12:03:56;;;;;;;72.37;68.87;;;17.00;99.90;;;;;;4329039;33;20629;-62
2021/10/20 12:06:25;;;;;;;64.13;60.83;;;17.20;99.90;;;;;;4331671;33;20161;-63
2021/10/20 12:08:52;;;;;;;64.03;60.73;;;17.20;99.90;;;;;;4330298;33;20169;-61
2021/10/20 12:11:20;;;;;;;67.07;63.30;;;17.10;99.90;;;;;;4329735;33;20177;-63
2021/10/20 12:13:50;;;;;;;63.83;60.77;;;16.90;99.90;;;;;;4330618;33;20172;-63
2021/10/20 12:16:19;;;;;;;66.73;63.33;;;16.70;99.90;;;;;;4332270;33;20223;-62
2021/10/20 12:18:47;;;;;;;64.43;60.97;;;16.60;99.90;;;;;;4332139;33;20228;-62
2021/10/20 12:21:17;;;;;;;66.50;63.20;;;16.60;99.90;;;;;;4328263;33;20196;-62
2021/10/20 12:23:46;;;;;;;68.83;65.23;;;16.60;99.90;;;;;;4329809;33;20153;-61
2021/10/20 12:26:13;;;;;;;67.03;63.43;;;16.70;99.90;;;;;;4330212;33;20193;-62
2021/10/20 12:28:42;;;;;;;70.07;66.47;;;16.80;99.90;;;;;;4331073;33;20248;-62
2021/10/20 12:31:10;;;;;;;72.57;69.17;;;16.90;99.90;;;;;;4331668;33;20636;-62